Time;durP1;ratioP1;P1;durP2;ratioP2;P2;SDS_P1;SDS_P2;PMS_P1;PMS_P2;Temp;Humidity;BMP_temperature;BMP_pressure;BME280_temperature;BME280_humidity;BME280_pressure;Samples;Min_cycle;Max_cycle;Signal;HPM_P1;HPM_P2
2021/12/17 00:00:32;;;;;;;1.17;0.73;;;5.70;99.90;;;;;;5094254;28;20425;-67
2021/12/17 00:03:31;;;;;;;1.07;0.97;;;5.70;99.90;;;;;;5094422;28;20564;-67
2021/12/17 00:06:40;;;;;;;2.40;1.37;;;5.80;99.90;;;;;;5093236;28;20922;-67
2021/12/17 00:09:27;;;;;;;0.60;0.60;;;5.70;99.90;;;;;;5093812;28;20423;-67
2021/12/17 00:12:17;;;;;;;1.57;1.47;;;5.80;99.90;;;;;;5094144;28;20462;-67
2021/12/17 00:15:09;;;;;;;3.40;2.20;;;5.70;99.90;;;;;;5093727;28;20419;-67
2021/12/17 00:18:02;;;;;;;1.37;1.27;;;5.70;99.90;;;;;;5094558;28;20438;-67
2021/12/17 00:48:38;;;;;;;1.07;0.93;;;5.70;99.90;;;;;;5073213;28;20823;-67
2021/12/17 00:51:55;;;;;;;0.40;0.40;;;5.70;99.90;;;;;;5073134;28;20451;-67
2021/12/17 00:54:43;;;;;;;2.30;1.67;;;5.80;99.90;;;;;;5072733;28;20461;-67
2021/12/17 00:57:36;;;;;;;1.03;0.93;;;5.80;99.90;;;;;;5073170;28;20455;-67
2021/12/17 01:00:24;;;;;;;1.20;1.10;;;5.80;99.90;;;;;;5073073;28;20423;-67
2021/12/17 01:03:13;;;;;;;0.73;0.73;;;5.80;99.90;;;;;;5073009;28;20444;-67
2021/12/17 01:06:00;;;;;;;1.27;1.17;;;5.80;99.90;;;;;;5073547;28;20423;-67
2021/12/17 01:08:49;;;;;;;2.50;1.00;;;5.80;99.90;;;;;;5072749;28;20951;-67
2021/12/17 01:11:36;;;;;;;0.47;0.47;;;5.70;99.90;;;;;;5073076;28;20467;-67
2021/12/17 01:14:23;;;;;;;0.63;0.63;;;5.80;99.90;;;;;;5072439;28;20469;-67
2021/12/17 01:17:11;;;;;;;1.37;1.27;;;5.80;99.90;;;;;;5072672;28;20800;-67
2021/12/17 01:23:31;;;;;;;0.60;0.60;;;5.80;99.90;;;;;;5039773;28;20454;-67
2021/12/17 01:35:33;;;;;;;4.37;1.80;;;5.80;99.90;;;;;;5072233;28;20411;-67
2021/12/17 01:41:56;;;;;;;1.83;0.73;;;5.80;99.90;;;;;;4990726;28;20430;-67
2021/12/17 01:44:43;;;;;;;0.57;0.57;;;5.90;99.90;;;;;;5071218;28;20560;-67
2021/12/17 01:47:30;;;;;;;0.40;0.40;;;5.80;99.90;;;;;;5072045;28;20947;-67
2021/12/17 01:56:52;;;;;;;1.00;1.00;;;5.90;99.90;;;;;;5086480;28;20462;-67
2021/12/17 01:59:40;;;;;;;2.17;1.63;;;5.90;99.90;;;;;;5086448;28;20431;-67
2021/12/17 02:02:28;;;;;;;0.40;0.40;;;5.80;99.90;;;;;;5080838;28;20411;-67
2021/12/17 02:05:15;;;;;;;0.60;0.60;;;5.80;99.90;;;;;;5073185;28;20569;-67
2021/12/17 02:08:03;;;;;;;0.60;0.60;;;5.80;99.90;;;;;;5073014;28;20442;-68
2021/12/17 02:30:41;;;;;;;1.17;0.90;;;5.80;99.90;;;;;;5078187;28;20942;-67
2021/12/17 02:33:28;;;;;;;2.00;1.50;;;5.70;99.90;;;;;;5077667;28;20954;-67
2021/12/17 02:36:20;;;;;;;0.73;0.73;;;5.70;99.90;;;;;;5077833;28;20480;-67
2021/12/17 02:39:29;;;;;;;0.50;0.50;;;5.80;99.90;;;;;;5076288;28;20443;-67
2021/12/17 02:42:36;;;;;;;0.97;0.83;;;5.70;99.90;;;;;;5076698;28;20419;-67
2021/12/17 02:45:32;;;;;;;2.67;1.57;;;5.70;99.90;;;;;;5076995;28;20993;-67
2021/12/17 02:48:21;;;;;;;5.10;2.83;;;5.70;99.90;;;;;;5076976;28;20443;-67
2021/12/17 02:51:08;;;;;;;3.67;2.60;;;5.70;99.90;;;;;;5076286;28;20916;-67
2021/12/17 02:53:59;;;;;;;2.03;1.63;;;5.70;99.90;;;;;;5076843;28;20423;-67
2021/12/17 02:56:46;;;;;;;3.20;2.03;;;5.80;99.90;;;;;;5076443;28;20472;-67
2021/12/17 02:59:34;;;;;;;0.80;0.80;;;5.70;99.90;;;;;;5076173;28;20447;-67
2021/12/17 03:02:24;;;;;;;2.20;1.10;;;5.60;99.90;;;;;;5076598;28;20453;-67
2021/12/17 03:05:12;;;;;;;4.27;2.00;;;5.60;99.90;;;;;;5076053;28;20418;-67
2021/12/17 03:08:00;;;;;;;1.77;0.87;;;5.70;99.90;;;;;;5076569;28;20453;-67
2021/12/17 03:10:50;;;;;;;4.07;1.93;;;5.70;99.90;;;;;;5076432;28;20419;-67
2021/12/17 03:13:38;;;;;;;1.33;0.60;;;5.60;99.90;;;;;;5074936;28;20463;-67
2021/12/17 03:16:31;;;;;;;1.83;1.17;;;5.70;99.90;;;;;;5076158;28;20419;-67
2021/12/17 03:23:25;;;;;;;0.40;0.40;;;5.70;99.90;;;;;;5076091;28;20427;-67
2021/12/17 03:25:35;;;;;;;0.80;0.70;;;5.70;99.90;;;;;;5074413;28;20778;-67
2021/12/17 03:28:23;;;;;;;0.60;0.60;;;5.80;99.90;;;;;;5073782;28;20845;-67
2021/12/17 03:31:12;;;;;;;1.60;1.23;;;5.80;99.90;;;;;;5074313;28;20450;-67
2021/12/17 03:34:11;;;;;;;0.67;0.67;;;5.80;99.90;;;;;;5073770;28;20438;-67
2021/12/17 03:36:59;;;;;;;5.33;2.30;;;5.70;99.90;;;;;;5074235;28;20780;-67
2021/12/17 03:39:45;;;;;;;1.20;1.20;;;5.80;99.90;;;;;;5073140;28;20422;-67
2021/12/17 03:42:32;;;;;;;0.60;0.60;;;5.70;99.90;;;;;;5074832;28;20412;-67
2021/12/17 03:45:21;;;;;;;0.43;0.43;;;5.70;99.90;;;;;;5074029;28;20554;-67
2021/12/17 03:48:08;;;;;;;2.60;1.67;;;5.70;99.90;;;;;;5073631;28;20493;-67
2021/12/17 03:50:55;;;;;;;0.40;0.40;;;5.80;99.90;;;;;;5074355;28;20426;-67
2021/12/17 03:53:45;;;;;;;0.40;0.40;;;5.70;99.90;;;;;;5074251;28;20508;-67
2021/12/17 03:56:32;;;;;;;0.60;0.60;;;5.70;99.90;;;;;;5075724;28;20424;-67
2021/12/17 03:59:19;;;;;;;0.40;0.40;;;5.70;99.90;;;;;;5076430;28;20476;-67
2021/12/17 04:02:07;;;;;;;0.80;0.80;;;5.80;99.90;;;;;;5076312;28;20419;-67
2021/12/17 04:04:54;;;;;;;0.80;0.80;;;5.70;99.90;;;;;;5074770;28;20458;-67
2021/12/17 04:07:41;;;;;;;0.77;0.77;;;5.70;99.90;;;;;;5075161;28;20500;-67
2021/12/17 04:10:29;;;;;;;0.80;0.80;;;5.60;99.90;;;;;;5073961;28;20415;-67
2021/12/17 04:13:27;;;;;;;3.43;1.13;;;5.70;99.90;;;;;;5075569;28;20846;-67
2021/12/17 04:16:14;;;;;;;0.40;0.40;;;5.70;99.90;;;;;;5074350;28;20518;-67
2021/12/17 04:19:03;;;;;;;0.50;0.50;;;5.70;99.90;;;;;;5074183;28;20435;-67
2021/12/17 04:21:50;;;;;;;1.43;1.33;;;5.70;99.90;;;;;;5086287;28;20500;-67
2021/12/17 04:24:37;;;;;;;3.50;1.27;;;5.70;99.90;;;;;;5095382;28;20434;-67
2021/12/17 04:27:23;;;;;;;14.00;2.07;;;5.60;99.90;;;;;;5095315;28;20449;-67
2021/12/17 04:30:11;;;;;;;2.93;2.30;;;5.60;99.90;;;;;;5096536;28;20418;-67
2021/12/17 04:32:59;;;;;;;2.77;1.00;;;5.70;99.90;;;;;;5095936;28;20469;-67
2021/12/17 04:35:47;;;;;;;0.40;0.40;;;5.70;99.90;;;;;;5075706;28;20465;-67
2021/12/17 04:38:34;;;;;;;1.53;1.53;;;5.80;99.90;;;;;;5077537;28;20443;-67
2021/12/17 04:41:43;;;;;;;0.60;0.57;;;5.70;99.90;;;;;;5077933;28;20423;-67
2021/12/17 04:44:33;;;;;;;0.53;0.50;;;5.70;99.90;;;;;;5075937;28;20938;-67
2021/12/17 04:59:45;;;;;;;1.23;1.13;;;5.80;99.90;;;;;;5112267;22;20492;-69
2021/12/17 05:02:35;;;;;;;0.67;0.67;;;5.80;99.90;;;;;;5092939;28;20415;-70
2021/12/17 05:05:26;;;;;;;0.60;0.60;;;5.70;99.90;;;;;;5092373;28;20430;-70
2021/12/17 05:08:16;;;;;;;0.73;0.73;;;5.80;99.90;;;;;;5091638;28;20450;-70
2021/12/17 05:11:25;;;;;;;0.40;0.40;;;5.80;99.90;;;;;;5094406;28;20433;-70
2021/12/17 05:20:30;;;;;;;0.73;0.73;;;5.90;99.90;;;;;;5093861;28;20421;-68
2021/12/17 05:23:22;;;;;;;3.07;1.90;;;5.90;99.90;;;;;;5074139;28;20415;-69
2021/12/17 05:26:13;;;;;;;0.40;0.40;;;5.90;99.90;;;;;;5072851;28;20958;-69
2021/12/17 05:28:59;;;;;;;1.07;0.50;;;5.80;99.90;;;;;;5072618;28;20478;-69
2021/12/17 05:31:46;;;;;;;0.50;0.50;;;5.80;99.90;;;;;;5073093;28;20443;-69
2021/12/17 05:34:33;;;;;;;0.40;0.40;;;5.90;99.90;;;;;;5073345;28;20427;-69
2021/12/17 05:37:20;;;;;;;1.27;1.27;;;6.00;99.90;;;;;;5072468;28;20488;-69
2021/12/17 05:40:08;;;;;;;1.13;0.53;;;6.00;99.90;;;;;;5072658;28;20477;-69
2021/12/17 05:43:00;;;;;;;0.50;0.50;;;6.00;99.90;;;;;;5073783;28;20411;-69
2021/12/17 05:45:51;;;;;;;1.43;0.67;;;5.90;99.90;;;;;;5073039;28;20780;-69
2021/12/17 05:48:39;;;;;;;0.40;0.40;;;6.00;99.90;;;;;;5073150;28;20439;-69
2021/12/17 05:51:26;;;;;;;0.97;0.80;;;6.00;99.90;;;;;;5073408;28;20422;-70
2021/12/17 05:54:13;;;;;;;0.50;0.50;;;6.00;99.90;;;;;;5072687;28;20498;-70
2021/12/17 05:57:00;;;;;;;1.80;1.43;;;6.00;99.90;;;;;;5072736;28;20427;-70
2021/12/17 05:59:48;;;;;;;0.80;0.80;;;6.00;99.90;;;;;;5072455;28;21133;-69
2021/12/17 06:02:35;;;;;;;0.70;0.70;;;6.00;99.90;;;;;;5072813;28;20419;-70
2021/12/17 06:05:22;;;;;;;1.33;1.23;;;6.00;99.90;;;;;;5072631;28;21004;-70
2021/12/17 06:08:09;;;;;;;2.10;2.00;;;6.00;99.90;;;;;;5072100;28;20608;-70
2021/12/17 06:10:56;;;;;;;0.40;0.40;;;6.00;99.90;;;;;;5073296;28;20837;-70
2021/12/17 06:13:43;;;;;;;0.40;0.40;;;6.00;99.90;;;;;;5072703;28;20839;-70
2021/12/17 06:16:33;;;;;;;6.10;2.93;;;6.10;99.90;;;;;;5072623;28;20427;-70
2021/12/17 06:19:20;;;;;;;1.37;1.37;;;6.00;99.90;;;;;;5072349;28;20492;-70
2021/12/17 06:22:07;;;;;;;0.50;0.50;;;6.10;99.90;;;;;;5087106;28;20429;-70
2021/12/17 06:24:53;;;;;;;0.40;0.40;;;6.00;99.90;;;;;;5090439;28;20419;-70
2021/12/17 06:27:41;;;;;;;5.13;1.70;;;6.00;99.90;;;;;;5090582;28;20939;-70
2021/12/17 06:30:28;;;;;;;0.40;0.40;;;6.10;99.90;;;;;;5092563;28;20835;-71
2021/12/17 06:33:16;;;;;;;0.70;0.70;;;6.10;99.90;;;;;;5092416;28;20458;-68
2021/12/17 06:36:03;;;;;;;7.00;2.70;;;6.00;99.90;;;;;;5092279;28;20505;-69
2021/12/17 06:38:50;;;;;;;1.73;1.63;;;6.00;99.90;;;;;;5090901;28;20810;-70
2021/12/17 06:41:38;;;;;;;2.10;2.00;;;6.00;99.90;;;;;;5088849;28;20430;-69
2021/12/17 06:44:26;;;;;;;0.60;0.60;;;5.90;99.90;;;;;;5092905;28;20433;-70
2021/12/17 06:47:26;;;;;;;3.50;1.10;;;6.00;99.90;;;;;;5092754;28;20422;-70
2021/12/17 06:57:24;;;;;;;0.40;0.40;;;5.90;99.90;;;;;;5093535;28;20414;-70
2021/12/17 07:00:12;;;;;;;1.97;1.87;;;6.00;99.90;;;;;;5092484;28;20498;-70
2021/12/17 07:06:10;;;;;;;0.40;0.40;;;5.90;99.90;;;;;;5093793;28;20926;-69
2021/12/17 07:21:58;;;;;;;4.67;2.20;;;5.90;99.90;;;;;;5104329;28;20425;-69
2021/12/17 07:28:02;;;;;;;0.87;0.87;;;6.00;99.90;;;;;;5106448;28;20442;-69
2021/12/17 07:28:12;;;;;;;1.73;1.37;;;5.90;99.90;;;;;;5103794;28;20414;-69
2021/12/17 07:34:06;;;;;;;2.20;1.17;;;5.90;99.90;;;;;;5107470;28;20953;-68
2021/12/17 07:38:36;;;;;;;0.40;0.40;;;5.80;99.90;;;;;;5104614;28;20419;-69
2021/12/17 07:40:04;;;;;;;0.40;0.40;;;5.90;99.90;;;;;;5105407;28;20422;-69
2021/12/17 07:42:53;;;;;;;0.70;0.70;;;5.90;99.90;;;;;;5107418;28;20415;-69
2021/12/17 07:45:40;;;;;;;0.40;0.40;;;5.90;99.90;;;;;;5105638;28;20430;-69
2021/12/17 07:48:27;;;;;;;0.40;0.40;;;6.00;99.90;;;;;;5104870;28;20438;-69
2021/12/17 07:51:17;;;;;;;0.83;0.70;;;6.00;99.90;;;;;;5104143;28;20444;-69
2021/12/17 07:54:06;;;;;;;0.40;0.40;;;6.10;99.90;;;;;;5105809;28;20458;-69
2021/12/17 07:56:53;;;;;;;2.80;1.63;;;6.00;99.90;;;;;;5106806;28;20649;-69
2021/12/17 07:59:40;;;;;;;1.30;0.63;;;6.10;99.90;;;;;;5105006;28;20458;-69
2021/12/17 08:02:27;;;;;;;0.40;0.40;;;6.10;99.90;;;;;;5103692;28;20418;-70
2021/12/17 08:05:14;;;;;;;0.63;0.63;;;6.10;99.90;;;;;;5104237;28;20454;-70
2021/12/17 08:08:01;;;;;;;1.07;1.07;;;6.10;99.90;;;;;;5104566;28;20464;-70
2021/12/17 08:10:49;;;;;;;5.10;1.33;;;6.20;99.90;;;;;;5105974;28;20422;-70
2021/12/17 08:13:36;;;;;;;0.50;0.50;;;6.20;99.90;;;;;;5102618;28;20490;-69
2021/12/17 08:16:34;;;;;;;0.50;0.50;;;6.10;99.90;;;;;;5092901;28;20418;-70
2021/12/17 08:25:46;;;;;;;0.40;0.40;;;6.30;99.90;;;;;;5093977;28;20410;-69
2021/12/17 08:28:52;;;;;;;0.50;0.50;;;6.20;99.90;;;;;;5091833;28;20465;-69
2021/12/17 08:31:39;;;;;;;0.50;0.50;;;6.30;99.90;;;;;;5093478;28;20444;-69
2021/12/17 08:34:26;;;;;;;0.40;0.40;;;6.30;99.90;;;;;;5093679;28;20465;-69
2021/12/17 08:37:14;;;;;;;1.37;0.97;;;6.30;99.90;;;;;;5093900;28;20425;-69
2021/12/17 08:40:01;;;;;;;1.60;0.90;;;6.40;99.90;;;;;;5092968;28;20450;-69
2021/12/17 08:42:48;;;;;;;0.83;0.50;;;6.40;99.90;;;;;;5095042;28;20476;-69
2021/12/17 08:45:36;;;;;;;1.53;1.53;;;6.40;99.90;;;;;;5094026;28;20496;-69
2021/12/17 08:48:23;;;;;;;0.60;0.60;;;6.40;99.90;;;;;;5092860;28;20819;-70
2021/12/17 08:51:10;;;;;;;0.80;0.80;;;6.50;99.90;;;;;;5092247;28;20422;-70
2021/12/17 08:53:57;;;;;;;0.40;0.40;;;6.50;99.90;;;;;;5093547;28;20465;-70
2021/12/17 08:56:47;;;;;;;0.40;0.40;;;6.50;99.90;;;;;;5094130;28;21011;-70
2021/12/17 08:59:34;;;;;;;0.90;0.70;;;6.50;99.90;;;;;;5098179;28;20990;-70
2021/12/17 09:02:22;;;;;;;2.40;0.90;;;6.60;99.90;;;;;;5100107;28;20422;-70
2021/12/17 09:05:11;;;;;;;5.40;2.50;;;6.60;99.90;;;;;;5083206;28;20451;-71
2021/12/17 09:07:58;;;;;;;6.73;1.20;;;6.60;99.90;;;;;;5092461;28;20446;-70
2021/12/17 09:10:45;;;;;;;40.40;11.60;;;6.70;99.90;;;;;;5081614;28;20431;-70
2021/12/17 09:13:32;;;;;;;2.07;1.10;;;6.70;99.90;;;;;;5073144;28;21013;-70
2021/12/17 09:16:20;;;;;;;2.20;1.67;;;6.80;99.90;;;;;;5073776;28;20427;-69
2021/12/17 09:19:10;;;;;;;0.40;0.40;;;6.80;99.90;;;;;;5073741;28;20447;-70
2021/12/17 09:21:57;;;;;;;0.60;0.60;;;6.70;99.90;;;;;;5073445;28;20435;-69
2021/12/17 09:24:44;;;;;;;0.60;0.60;;;6.70;99.90;;;;;;5073540;28;20423;-70
2021/12/17 09:27:32;;;;;;;0.40;0.40;;;6.80;99.90;;;;;;5073086;28;20485;-70
2021/12/17 09:30:20;;;;;;;0.50;0.50;;;6.80;99.90;;;;;;5090748;28;20938;-70
2021/12/17 09:33:07;;;;;;;1.07;0.70;;;6.80;99.90;;;;;;5093146;28;20493;-68
2021/12/17 09:35:56;;;;;;;1.13;1.03;;;7.00;99.90;;;;;;5093813;28;20475;-71
2021/12/17 09:38:46;;;;;;;0.40;0.40;;;6.90;99.90;;;;;;5091898;28;20443;-69
2021/12/17 09:41:33;;;;;;;0.60;0.60;;;6.90;99.90;;;;;;5093028;28;20419;-69
2021/12/17 09:44:20;;;;;;;1.20;1.10;;;6.90;99.90;;;;;;5092405;28;20962;-69
2021/12/17 09:47:07;;;;;;;32.33;2.90;;;6.90;99.90;;;;;;5091581;28;20976;-70
2021/12/17 09:49:55;;;;;;;3.73;1.70;;;6.90;99.90;;;;;;5091256;28;20485;-70
2021/12/17 09:52:43;;;;;;;0.40;0.40;;;7.00;99.90;;;;;;5080515;28;20431;-69
2021/12/17 09:55:30;;;;;;;0.50;0.50;;;7.00;99.90;;;;;;5090315;28;20430;-70
2021/12/17 09:58:17;;;;;;;2.97;1.57;;;6.90;99.90;;;;;;5079254;28;20446;-70
2021/12/17 10:01:04;;;;;;;0.93;0.93;;;7.20;99.90;;;;;;5071918;28;20431;-69
2021/12/17 10:04:13;;;;;;;0.60;0.60;;;7.00;99.90;;;;;;5087905;28;20953;-69
2021/12/17 10:07:19;;;;;;;0.40;0.40;;;6.90;99.90;;;;;;5092624;28;20438;-69
2021/12/17 10:10:08;;;;;;;0.40;0.40;;;7.00;99.90;;;;;;5081823;28;20426;-70
2021/12/17 10:13:06;;;;;;;0.53;0.53;;;7.00;99.90;;;;;;5073048;28;20781;-70
2021/12/17 10:15:56;;;;;;;0.40;0.40;;;7.10;99.90;;;;;;5071962;28;20458;-70
2021/12/17 10:18:47;;;;;;;1.37;0.87;;;7.00;99.90;;;;;;5075393;28;20530;-71
2021/12/17 10:21:38;;;;;;;0.50;0.50;;;7.00;99.90;;;;;;5091278;28;20431;-71
2021/12/17 10:24:25;;;;;;;0.40;0.40;;;7.00;99.90;;;;;;5098323;28;20937;-70
2021/12/17 10:27:22;;;;;;;0.40;0.40;;;7.00;99.90;;;;;;5097773;28;21189;-71
2021/12/17 10:30:13;;;;;;;1.07;1.07;;;7.10;99.90;;;;;;5099888;28;20442;-70
2021/12/17 10:33:05;;;;;;;1.40;0.60;;;7.10;99.90;;;;;;5083780;28;20743;-70
2021/12/17 10:35:53;;;;;;;0.40;0.40;;;7.10;99.90;;;;;;5100393;28;20488;-70
2021/12/17 10:38:44;;;;;;;0.53;0.53;;;7.10;99.90;;;;;;5092188;28;20462;-70
2021/12/17 10:41:33;;;;;;;1.27;0.73;;;7.10;99.90;;;;;;5089155;28;20465;-70
2021/12/17 10:44:22;;;;;;;1.63;0.60;;;7.10;99.90;;;;;;5087317;28;20427;-69
2021/12/17 10:47:13;;;;;;;0.70;0.70;;;7.10;99.90;;;;;;5091192;28;20419;-70
2021/12/17 10:50:02;;;;;;;1.17;1.07;;;7.10;99.90;;;;;;5091774;28;20804;-70
2021/12/17 10:52:55;;;;;;;1.03;0.70;;;7.10;99.90;;;;;;5090390;28;20748;-70
2021/12/17 10:55:46;;;;;;;0.87;0.80;;;7.10;99.90;;;;;;5075038;28;20520;-70
2021/12/17 10:58:32;;;;;;;0.40;0.40;;;7.20;99.90;;;;;;5097539;22;20489;-67
2021/12/17 11:01:29;;;;;;;1.03;0.87;;;7.20;99.90;;;;;;5091444;28;20424;-67
2021/12/17 11:04:19;;;;;;;0.40;0.40;;;7.20;99.90;;;;;;5074908;28;20415;-67
2021/12/17 11:07:08;;;;;;;3.17;0.80;;;7.20;99.90;;;;;;5075676;28;20969;-68
2021/12/17 11:09:59;;;;;;;0.87;0.87;;;7.20;99.90;;;;;;5059928;28;20443;-68
2021/12/17 11:12:47;;;;;;;0.40;0.40;;;7.20;99.90;;;;;;5056646;28;20935;-67
2021/12/17 11:15:34;;;;;;;9.50;1.00;;;7.20;99.90;;;;;;5056625;28;20464;-68
2021/12/17 11:18:26;;;;;;;0.87;0.87;;;7.30;99.90;;;;;;5056535;28;20447;-68
2021/12/17 11:21:13;;;;;;;0.40;0.40;;;7.40;99.90;;;;;;5056204;28;20405;-68
2021/12/17 11:24:01;;;;;;;0.77;0.70;;;7.40;99.90;;;;;;5057418;28;21148;-68
2021/12/17 11:26:48;;;;;;;0.40;0.40;;;7.40;99.90;;;;;;5056196;28;20796;-68
2021/12/17 11:29:41;;;;;;;2.50;0.97;;;7.40;99.90;;;;;;5059098;28;20466;-67
2021/12/17 11:32:35;;;;;;;0.87;0.87;;;7.50;99.90;;;;;;5071382;28;20455;-67
2021/12/17 11:35:27;;;;;;;0.40;0.40;;;7.40;99.90;;;;;;5073366;28;20551;-67
2021/12/17 11:38:18;;;;;;;0.80;0.70;;;7.50;99.90;;;;;;5056272;28;20946;-67
2021/12/17 11:41:13;;;;;;;0.60;0.60;;;7.60;99.90;;;;;;5055169;28;20424;-67
2021/12/17 11:44:07;;;;;;;0.40;0.40;;;7.70;99.90;;;;;;5055846;28;20498;-67
2021/12/17 11:47:03;;;;;;;0.40;0.40;;;7.70;99.90;;;;;;5055931;28;20501;-67
2021/12/17 11:49:52;;;;;;;0.40;0.40;;;7.70;99.90;;;;;;5055300;28;20816;-67
2021/12/17 11:52:43;;;;;;;0.40;0.40;;;7.70;99.90;;;;;;5055485;28;20444;-69
2021/12/17 11:55:34;;;;;;;0.40;0.40;;;7.70;99.90;;;;;;5056150;28;20549;-68
2021/12/17 11:58:44;;;;;;;0.40;0.40;;;7.90;99.90;;;;;;5056143;28;20448;-68
2021/12/17 12:01:51;;;;;;;0.40;0.40;;;7.80;99.90;;;;;;5069213;28;20446;-69
2021/12/17 12:04:50;;;;;;;1.03;0.60;;;7.70;99.90;;;;;;5076001;28;20848;-68
2021/12/17 12:07:38;;;;;;;0.90;0.50;;;7.60;99.90;;;;;;5075124;28;20447;-68
2021/12/17 12:10:26;;;;;;;0.40;0.40;;;7.60;99.90;;;;;;5075123;28;20533;-68
2021/12/17 12:13:34;;;;;;;0.50;0.43;;;7.50;99.90;;;;;;5062810;28;20431;-68
2021/12/17 12:16:24;;;;;;;0.40;0.40;;;7.60;99.90;;;;;;5065160;28;20949;-68
2021/12/17 12:19:11;;;;;;;0.87;0.73;;;7.70;99.90;;;;;;5058357;28;20452;-68
2021/12/17 12:22:08;;;;;;;0.47;0.47;;;7.70;99.90;;;;;;5057375;28;20975;-68
2021/12/17 12:25:29;;;;;;;0.40;0.40;;;7.80;99.90;;;;;;5057833;28;20948;-68
2021/12/17 12:28:16;;;;;;;0.40;0.40;;;7.80;99.90;;;;;;5054008;28;20424;-68
2021/12/17 12:31:03;;;;;;;0.40;0.40;;;7.70;99.90;;;;;;5053646;28;20424;-68
2021/12/17 12:34:06;;;;;;;0.40;0.40;;;7.80;99.90;;;;;;5054846;28;20512;-68
2021/12/17 12:36:55;;;;;;;0.40;0.40;;;7.80;99.90;;;;;;5055143;28;20439;-68
2021/12/17 12:40:03;;;;;;;0.40;0.40;;;7.80;99.90;;;;;;5058047;28;20483;-68
2021/12/17 12:42:56;;;;;;;0.40;0.40;;;7.80;99.90;;;;;;5051991;28;20954;-68
2021/12/17 12:45:45;;;;;;;0.40;0.40;;;7.80;99.90;;;;;;5052980;28;20486;-68
2021/12/17 12:48:36;;;;;;;0.40;0.40;;;7.80;99.90;;;;;;5052927;28;20459;-67
2021/12/17 12:51:23;;;;;;;0.50;0.50;;;7.70;99.90;;;;;;5054087;28;20482;-67
2021/12/17 12:54:11;;;;;;;0.40;0.40;;;7.70;99.90;;;;;;5053485;28;20479;-67
2021/12/17 12:56:58;;;;;;;0.40;0.40;;;7.90;99.90;;;;;;5053985;28;20420;-68
2021/12/17 12:59:51;;;;;;;0.40;0.40;;;7.70;99.90;;;;;;5062230;28;20474;-67
2021/12/17 13:02:38;;;;;;;0.40;0.40;;;7.70;99.90;;;;;;5055196;28;20428;-67
2021/12/17 13:05:26;;;;;;;0.40;0.40;;;7.70;99.90;;;;;;5054425;28;20428;-68
2021/12/17 13:08:15;;;;;;;0.70;0.70;;;7.70;99.90;;;;;;5055201;28;20462;-68
2021/12/17 13:11:04;;;;;;;0.40;0.40;;;7.70;99.90;;;;;;5071427;28;20793;-68
2021/12/17 13:13:53;;;;;;;0.40;0.40;;;7.70;99.90;;;;;;5060433;28;20451;-68
2021/12/17 13:17:05;;;;;;;0.40;0.40;;;7.60;99.90;;;;;;5057950;28;20954;-68
2021/12/17 13:23:01;;;;;;;0.40;0.40;;;7.60;99.90;;;;;;5055654;28;20420;-68
2021/12/17 13:26:01;;;;;;;0.40;0.40;;;7.60;99.90;;;;;;5059257;28;20997;-68
2021/12/17 13:28:54;;;;;;;0.50;0.50;;;7.60;99.90;;;;;;5056982;28;20447;-68
2021/12/17 13:31:51;;;;;;;1.53;1.27;;;7.60;99.90;;;;;;5059360;28;20420;-68
2021/12/17 13:34:39;;;;;;;0.40;0.40;;;7.50;99.90;;;;;;5059490;28;20475;-68
2021/12/17 13:37:30;;;;;;;0.40;0.40;;;7.50;99.90;;;;;;5067308;28;20420;-68
2021/12/17 13:40:20;;;;;;;0.60;0.60;;;7.50;99.90;;;;;;5051914;28;20448;-67
2021/12/17 13:43:07;;;;;;;3.03;1.60;;;7.50;99.90;;;;;;5068539;28;20431;-68
2021/12/17 13:45:55;;;;;;;0.40;0.40;;;7.50;99.90;;;;;;5059912;28;20422;-68
2021/12/17 13:48:43;;;;;;;1.00;0.80;;;7.40;99.90;;;;;;5057162;28;20521;-67
2021/12/17 13:51:31;;;;;;;0.40;0.40;;;7.40;99.90;;;;;;5056602;28;20447;-68
2021/12/17 13:54:18;;;;;;;0.40;0.40;;;7.50;99.90;;;;;;5060385;28;20427;-68
2021/12/17 13:57:06;;;;;;;1.23;1.20;;;7.50;99.90;;;;;;5067926;28;20428;-68
2021/12/17 14:00:01;;;;;;;0.70;0.60;;;7.50;99.90;;;;;;5061566;28;20470;-68
2021/12/17 14:02:50;;;;;;;0.40;0.40;;;7.50;99.90;;;;;;5067276;28;20427;-68
2021/12/17 14:05:44;;;;;;;0.90;0.63;;;7.60;99.90;;;;;;5056666;28;20927;-68
2021/12/17 14:08:30;;;;;;;2.20;0.63;;;7.60;99.90;;;;;;5057655;28;20455;-67
2021/12/17 14:11:24;;;;;;;0.40;0.40;;;7.50;99.90;;;;;;5053394;28;20434;-67
2021/12/17 14:14:22;;;;;;;0.40;0.40;;;7.50;99.90;;;;;;5060383;28;20519;-67
2021/12/17 14:17:10;;;;;;;0.50;0.47;;;7.40;99.90;;;;;;5066425;28;20467;-67
2021/12/17 14:20:06;;;;;;;0.40;0.40;;;7.50;99.90;;;;;;5061837;28;20446;-67
2021/12/17 14:22:59;;;;;;;0.60;0.50;;;7.40;99.90;;;;;;5072706;28;20504;-67
2021/12/17 14:25:48;;;;;;;0.40;0.40;;;7.30;99.90;;;;;;5078182;28;20415;-67
2021/12/17 14:28:38;;;;;;;0.40;0.40;;;7.30;99.90;;;;;;5078028;28;20446;-67
2021/12/17 14:31:25;;;;;;;0.90;0.50;;;7.30;99.90;;;;;;5075078;28;20431;-67
2021/12/17 14:34:17;;;;;;;0.80;0.60;;;7.20;99.90;;;;;;5075175;28;20419;-67
2021/12/17 14:37:04;;;;;;;0.40;0.40;;;7.10;99.90;;;;;;5065304;28;20439;-68
2021/12/17 14:39:55;;;;;;;0.50;0.50;;;7.10;99.90;;;;;;5055461;28;20444;-68
2021/12/17 14:42:45;;;;;;;9.87;1.90;;;7.00;99.90;;;;;;5056246;28;20506;-67
2021/12/17 14:45:36;;;;;;;0.40;0.40;;;7.10;99.90;;;;;;5056446;28;20496;-68
2021/12/17 14:48:32;;;;;;;1.03;0.70;;;7.00;99.90;;;;;;5056295;28;20827;-68
2021/12/17 15:00:57;;;;;;;0.40;0.40;;;7.00;99.90;;;;;;5020122;28;20460;-68
2021/12/17 15:03:44;;;;;;;0.83;0.83;;;7.00;99.90;;;;;;5055772;28;20507;-68
2021/12/17 15:06:31;;;;;;;3.70;3.50;;;7.00;99.90;;;;;;5054686;28;20408;-68
2021/12/17 15:09:18;;;;;;;0.87;0.87;;;6.90;99.90;;;;;;5054231;28;20518;-67
2021/12/17 15:12:23;;;;;;;0.40;0.40;;;6.90;99.90;;;;;;5054479;28;20507;-67
2021/12/17 15:15:16;;;;;;;0.40;0.40;;;6.90;99.90;;;;;;5056431;28;20456;-68
2021/12/17 15:18:05;;;;;;;0.60;0.60;;;6.90;99.90;;;;;;5054697;28;20420;-68
2021/12/17 15:20:56;;;;;;;0.40;0.40;;;6.80;99.90;;;;;;5054691;28;20425;-67
2021/12/17 15:23:43;;;;;;;0.40;0.40;;;6.80;99.90;;;;;;5063256;28;20435;-68
2021/12/17 15:26:29;;;;;;;0.40;0.40;;;6.80;99.90;;;;;;5083441;28;20423;-67
2021/12/17 15:29:18;;;;;;;0.40;0.40;;;6.80;99.90;;;;;;5081177;28;20447;-67
2021/12/17 15:32:07;;;;;;;0.40;0.40;;;6.80;99.90;;;;;;5081116;28;20490;-67
2021/12/17 15:34:54;;;;;;;0.40;0.40;;;6.80;99.90;;;;;;5078555;28;20473;-68
2021/12/17 15:37:41;;;;;;;0.40;0.40;;;6.90;99.90;;;;;;5061400;28;20796;-68
2021/12/17 15:40:28;;;;;;;0.40;0.40;;;6.80;99.90;;;;;;5055240;28;20416;-68
2021/12/17 15:43:17;;;;;;;0.40;0.40;;;6.80;99.90;;;;;;5055256;28;20420;-68
2021/12/17 15:46:04;;;;;;;0.40;0.40;;;6.70;99.90;;;;;;5072241;28;20768;-68
2021/12/17 15:48:52;;;;;;;0.40;0.40;;;6.70;99.90;;;;;;5074003;28;20435;-68
2021/12/17 15:51:39;;;;;;;0.40;0.40;;;6.70;99.90;;;;;;5074468;28;20427;-68
2021/12/17 15:54:26;;;;;;;0.50;0.50;;;6.70;99.90;;;;;;5074701;28;20951;-68
2021/12/17 15:57:15;;;;;;;0.50;0.50;;;6.70;99.90;;;;;;5075028;28;20424;-68
2021/12/17 16:00:04;;;;;;;1.13;0.87;;;6.60;99.90;;;;;;5075300;28;20966;-68
2021/12/17 16:02:51;;;;;;;0.40;0.40;;;6.60;99.90;;;;;;5075119;28;20841;-68
2021/12/17 16:05:40;;;;;;;0.40;0.40;;;6.60;99.90;;;;;;5074993;28;20446;-68
2021/12/17 16:08:27;;;;;;;0.40;0.40;;;6.60;99.90;;;;;;5074690;28;20450;-68
2021/12/17 16:11:49;;;;;;;0.40;0.40;;;6.60;99.90;;;;;;5073746;28;20411;-67
2021/12/17 16:18:11;;;;;;;0.40;0.40;;;6.60;99.90;;;;;;5079596;28;20403;-68
2021/12/17 16:21:03;;;;;;;0.43;0.43;;;6.60;99.90;;;;;;5092672;28;20454;-68
2021/12/17 16:23:52;;;;;;;0.40;0.40;;;6.60;99.90;;;;;;5094948;28;20426;-67
2021/12/17 16:26:39;;;;;;;0.40;0.40;;;6.60;99.90;;;;;;5095439;28;20441;-68
2021/12/17 16:29:26;;;;;;;1.00;1.00;;;6.60;99.90;;;;;;5086860;28;20511;-68
2021/12/17 16:32:13;;;;;;;0.40;0.40;;;6.70;99.90;;;;;;5076498;28;20841;-68
2021/12/17 16:35:00;;;;;;;0.40;0.40;;;6.90;99.90;;;;;;5075506;28;20403;-68
2021/12/17 16:37:49;;;;;;;0.40;0.40;;;6.70;99.90;;;;;;5058314;28;20936;-67
2021/12/17 16:40:37;;;;;;;0.40;0.40;;;6.70;99.90;;;;;;5055113;28;20515;-68
2021/12/17 16:43:24;;;;;;;0.90;0.90;;;6.80;99.90;;;;;;5054445;28;20511;-67
2021/12/17 16:46:25;;;;;;;0.70;0.70;;;6.70;99.90;;;;;;5054779;28;20425;-67
2021/12/17 16:49:15;;;;;;;0.40;0.40;;;6.70;99.90;;;;;;5053685;28;20451;-67
2021/12/17 16:52:05;;;;;;;2.00;0.90;;;6.70;99.90;;;;;;5053631;28;20470;-67
2021/12/17 16:54:53;;;;;;;0.40;0.40;;;6.60;99.90;;;;;;5054286;28;20430;-67
2021/12/17 16:57:40;;;;;;;0.40;0.40;;;6.70;99.90;;;;;;5053316;28;20911;-67
2021/12/17 17:00:28;;;;;;;0.40;0.40;;;6.60;99.90;;;;;;5054800;28;20428;-68
2021/12/17 17:03:15;;;;;;;0.60;0.60;;;6.70;99.90;;;;;;5053919;28;20932;-68
2021/12/17 17:06:03;;;;;;;1.43;1.33;;;6.70;99.90;;;;;;5052946;28;20423;-68
2021/12/17 17:08:50;;;;;;;0.40;0.40;;;6.70;99.90;;;;;;5052835;28;20475;-68
2021/12/17 17:11:40;;;;;;;1.27;1.27;;;6.90;99.90;;;;;;5054997;28;21018;-68
2021/12/17 17:14:27;;;;;;;0.70;0.70;;;6.70;99.90;;;;;;5054069;28;20459;-68
2021/12/17 17:17:14;;;;;;;0.40;0.40;;;6.80;99.90;;;;;;5054913;28;20491;-68
2021/12/17 17:20:00;;;;;;;0.40;0.40;;;6.80;99.90;;;;;;5055376;28;20444;-68